sensor_id;sensor_type;location;lat;lon;timestamp;temperature;humidity
18880;DHT22;9572;52.378;13.404;2023-05-29T00:01:46;14.30;99.90
18880;DHT22;9572;52.378;13.404;2023-05-29T00:04:13;14.20;99.90
18880;DHT22;9572;52.378;13.404;2023-05-29T00:06:41;14.10;99.90
18880;DHT22;9572;52.378;13.404;2023-05-29T00:09:08;14.10;99.90
18880;DHT22;9572;52.378;13.404;2023-05-29T00:11:35;14.00;99.90
18880;DHT22;9572;52.378;13.404;2023-05-29T00:14:01;13.90;99.90
18880;DHT22;9572;52.378;13.404;2023-05-29T00:16:28;13.90;99.90
18880;DHT22;9572;52.378;13.404;2023-05-29T00:18:55;13.80;99.90
18880;DHT22;9572;52.378;13.404;2023-05-29T00:21:23;13.70;99.90
18880;DHT22;9572;52.378;13.404;2023-05-29T00:23:51;13.70;99.90
18880;DHT22;9572;52.378;13.404;2023-05-29T00:26:18;13.70;99.90
18880;DHT22;9572;52.378;13.404;2023-05-29T00:28:45;13.70;99.90
18880;DHT22;9572;52.378;13.404;2023-05-29T00:31:12;13.60;99.90
18880;DHT22;9572;52.378;13.404;2023-05-29T00:33:39;13.60;99.90
18880;DHT22;9572;52.378;13.404;2023-05-29T00:36:06;13.60;99.90
18880;DHT22;9572;52.378;13.404;2023-05-29T00:38:33;13.50;99.90
18880;DHT22;9572;52.378;13.404;2023-05-29T00:41:01;13.50;99.90
18880;DHT22;9572;52.378;13.404;2023-05-29T00:43:29;13.50;99.90
18880;DHT22;9572;52.378;13.404;2023-05-29T00:45:56;13.40;99.90
18880;DHT22;9572;52.378;13.404;2023-05-29T00:48:23;13.30;99.90
18880;DHT22;9572;52.378;13.404;2023-05-29T00:50:50;13.40;99.90
18880;DHT22;9572;52.378;13.404;2023-05-29T00:53:18;13.50;99.90
18880;DHT22;9572;52.378;13.404;2023-05-29T00:55:45;13.40;99.90
18880;DHT22;9572;52.378;13.404;2023-05-29T00:58:14;13.40;99.90
18880;DHT22;9572;52.378;13.404;2023-05-29T01:00:41;13.30;99.90
18880;DHT22;9572;52.378;13.404;2023-05-29T01:03:08;13.30;99.90
18880;DHT22;9572;52.378;13.404;2023-05-29T01:05:35;13.20;99.90
18880;DHT22;9572;52.378;13.404;2023-05-29T01:08:02;13.20;99.90
18880;DHT22;9572;52.378;13.404;2023-05-29T01:10:29;13.20;99.90
18880;DHT22;9572;52.378;13.404;2023-05-29T01:13:02;13.20;99.90
18880;DHT22;9572;52.378;13.404;2023-05-29T01:15:40;13.10;99.90
18880;DHT22;9572;52.378;13.404;2023-05-29T01:18:20;13.00;99.90
18880;DHT22;9572;52.378;13.404;2023-05-29T01:20:55;13.00;99.90
18880;DHT22;9572;52.378;13.404;2023-05-29T01:26:48;12.90;99.90
18880;DHT22;9572;52.378;13.404;2023-05-29T01:29:18;12.90;99.90
18880;DHT22;9572;52.378;13.404;2023-05-29T01:31:47;12.80;99.90
18880;DHT22;9572;52.378;13.404;2023-05-29T01:34:14;12.80;99.90
18880;DHT22;9572;52.378;13.404;2023-05-29T01:36:41;12.70;99.90
18880;DHT22;9572;52.378;13.404;2023-05-29T01:39:08;12.60;99.90
18880;DHT22;9572;52.378;13.404;2023-05-29T01:41:36;12.60;99.90
18880;DHT22;9572;52.378;13.404;2023-05-29T01:44:06;12.50;99.90
18880;DHT22;9572;52.378;13.404;2023-05-29T01:46:35;12.40;99.90
18880;DHT22;9572;52.378;13.404;2023-05-29T01:49:02;12.40;99.90
18880;DHT22;9572;52.378;13.404;2023-05-29T01:51:29;12.40;99.90
18880;DHT22;9572;52.378;13.404;2023-05-29T01:53:57;12.40;99.90
18880;DHT22;9572;52.378;13.404;2023-05-29T01:56:27;12.30;99.90
18880;DHT22;9572;52.378;13.404;2023-05-29T01:58:56;12.30;99.90
18880;DHT22;9572;52.378;13.404;2023-05-29T02:01:24;12.30;99.90
18880;DHT22;9572;52.378;13.404;2023-05-29T02:03:51;12.30;99.90
18880;DHT22;9572;52.378;13.404;2023-05-29T02:06:18;12.30;99.90
18880;DHT22;9572;52.378;13.404;2023-05-29T02:08:45;12.20;99.90
18880;DHT22;9572;52.378;13.404;2023-05-29T02:11:13;12.20;99.90
18880;DHT22;9572;52.378;13.404;2023-05-29T02:13:41;12.10;99.90
18880;DHT22;9572;52.378;13.404;2023-05-29T02:16:07;12.00;99.90
18880;DHT22;9572;52.378;13.404;2023-05-29T02:18:36;12.00;99.90
18880;DHT22;9572;52.378;13.404;2023-05-29T02:21:03;12.00;99.90
18880;DHT22;9572;52.378;13.404;2023-05-29T02:23:29;11.90;99.90
18880;DHT22;9572;52.378;13.404;2023-05-29T02:25:56;11.90;99.90
18880;DHT22;9572;52.378;13.404;2023-05-29T02:28:23;11.90;99.90
18880;DHT22;9572;52.378;13.404;2023-05-29T02:30:50;11.90;99.90
18880;DHT22;9572;52.378;13.404;2023-05-29T02:33:17;11.90;99.90
18880;DHT22;9572;52.378;13.404;2023-05-29T02:35:46;11.90;99.90
18880;DHT22;9572;52.378;13.404;2023-05-29T02:38:13;11.90;99.90
18880;DHT22;9572;52.378;13.404;2023-05-29T02:40:40;11.90;99.90
18880;DHT22;9572;52.378;13.404;2023-05-29T02:43:08;12.00;99.90
18880;DHT22;9572;52.378;13.404;2023-05-29T02:45:36;12.00;99.90
18880;DHT22;9572;52.378;13.404;2023-05-29T02:48:03;12.00;99.90
18880;DHT22;9572;52.378;13.404;2023-05-29T02:50:29;12.00;99.90
18880;DHT22;9572;52.378;13.404;2023-05-29T02:52:58;12.00;99.90
18880;DHT22;9572;52.378;13.404;2023-05-29T02:55:25;12.10;99.90
18880;DHT22;9572;52.378;13.404;2023-05-29T02:57:51;12.00;99.90
18880;DHT22;9572;52.378;13.404;2023-05-29T03:00:20;12.00;99.90
18880;DHT22;9572;52.378;13.404;2023-05-29T03:02:47;12.00;99.90
18880;DHT22;9572;52.378;13.404;2023-05-29T03:05:14;12.00;99.90
18880;DHT22;9572;52.378;13.404;2023-05-29T03:07:42;12.00;99.90
18880;DHT22;9572;52.378;13.404;2023-05-29T03:10:10;11.90;99.90
18880;DHT22;9572;52.378;13.404;2023-05-29T03:12:37;12.00;99.90
18880;DHT22;9572;52.378;13.404;2023-05-29T03:15:05;12.00;99.90
18880;DHT22;9572;52.378;13.404;2023-05-29T03:17:33;11.90;99.90
18880;DHT22;9572;52.378;13.404;2023-05-29T03:20:02;11.90;99.90
18880;DHT22;9572;52.378;13.404;2023-05-29T03:22:31;11.90;99.90
18880;DHT22;9572;52.378;13.404;2023-05-29T03:24:58;11.90;99.90
18880;DHT22;9572;52.378;13.404;2023-05-29T03:27:26;12.00;99.90
18880;DHT22;9572;52.378;13.404;2023-05-29T03:29:54;12.00;99.90
18880;DHT22;9572;52.378;13.404;2023-05-29T03:32:21;12.10;99.90
18880;DHT22;9572;52.378;13.404;2023-05-29T03:34:48;12.10;99.90
18880;DHT22;9572;52.378;13.404;2023-05-29T03:37:15;12.10;99.90
18880;DHT22;9572;52.378;13.404;2023-05-29T03:39:42;12.00;99.90
18880;DHT22;9572;52.378;13.404;2023-05-29T03:42:09;12.00;99.90
18880;DHT22;9572;52.378;13.404;2023-05-29T03:44:37;12.00;99.90
18880;DHT22;9572;52.378;13.404;2023-05-29T03:47:04;12.00;99.90
18880;DHT22;9572;52.378;13.404;2023-05-29T03:49:31;12.10;99.90
18880;DHT22;9572;52.378;13.404;2023-05-29T03:51:58;12.10;99.90
18880;DHT22;9572;52.378;13.404;2023-05-29T03:54:25;12.00;99.90
18880;DHT22;9572;52.378;13.404;2023-05-29T03:56:52;12.10;99.90
18880;DHT22;9572;52.378;13.404;2023-05-29T03:59:19;12.10;99.90
18880;DHT22;9572;52.378;13.404;2023-05-29T04:01:47;12.10;99.90
18880;DHT22;9572;52.378;13.404;2023-05-29T04:04:14;12.20;99.90
18880;DHT22;9572;52.378;13.404;2023-05-29T04:06:40;12.30;99.90
18880;DHT22;9572;52.378;13.404;2023-05-29T04:09:07;12.30;99.90
18880;DHT22;9572;52.378;13.404;2023-05-29T04:11:34;12.20;99.90
18880;DHT22;9572;52.378;13.404;2023-05-29T04:14:01;12.20;99.90
18880;DHT22;9572;52.378;13.404;2023-05-29T04:16:29;12.30;99.90
18880;DHT22;9572;52.378;13.404;2023-05-29T04:18:57;12.30;99.90
18880;DHT22;9572;52.378;13.404;2023-05-29T04:21:24;12.30;99.90
18880;DHT22;9572;52.378;13.404;2023-05-29T04:23:51;12.40;99.90
18880;DHT22;9572;52.378;13.404;2023-05-29T04:26:20;12.40;99.90
18880;DHT22;9572;52.378;13.404;2023-05-29T04:28:51;12.50;99.90
18880;DHT22;9572;52.378;13.404;2023-05-29T04:31:22;12.50;99.90
18880;DHT22;9572;52.378;13.404;2023-05-29T04:33:51;12.60;99.90
18880;DHT22;9572;52.378;13.404;2023-05-29T04:36:22;12.80;99.90
18880;DHT22;9572;52.378;13.404;2023-05-29T04:38:52;12.80;99.90
18880;DHT22;9572;52.378;13.404;2023-05-29T04:41:18;12.90;99.90
18880;DHT22;9572;52.378;13.404;2023-05-29T04:43:49;13.00;99.90
18880;DHT22;9572;52.378;13.404;2023-05-29T04:46:16;13.10;99.90
18880;DHT22;9572;52.378;13.404;2023-05-29T04:48:43;13.20;99.90
18880;DHT22;9572;52.378;13.404;2023-05-29T04:51:10;13.20;99.90
18880;DHT22;9572;52.378;13.404;2023-05-29T04:53:39;13.40;99.90
18880;DHT22;9572;52.378;13.404;2023-05-29T04:56:07;13.40;99.90
18880;DHT22;9572;52.378;13.404;2023-05-29T04:58:34;13.50;99.90
18880;DHT22;9572;52.378;13.404;2023-05-29T05:01:01;13.70;99.90
18880;DHT22;9572;52.378;13.404;2023-05-29T05:03:29;13.80;99.90
18880;DHT22;9572;52.378;13.404;2023-05-29T05:05:59;13.90;99.90
18880;DHT22;9572;52.378;13.404;2023-05-29T05:08:27;14.00;99.90
18880;DHT22;9572;52.378;13.404;2023-05-29T05:10:56;14.20;99.90
18880;DHT22;9572;52.378;13.404;2023-05-29T05:13:23;14.30;99.90
18880;DHT22;9572;52.378;13.404;2023-05-29T05:15:50;14.40;99.90
18880;DHT22;9572;52.378;13.404;2023-05-29T05:18:17;14.60;99.90
18880;DHT22;9572;52.378;13.404;2023-05-29T05:20:43;14.60;99.90
18880;DHT22;9572;52.378;13.404;2023-05-29T05:23:10;14.80;99.90
18880;DHT22;9572;52.378;13.404;2023-05-29T05:25:38;14.80;99.90
18880;DHT22;9572;52.378;13.404;2023-05-29T05:28:08;15.00;99.90
18880;DHT22;9572;52.378;13.404;2023-05-29T05:30:35;15.20;99.90
18880;DHT22;9572;52.378;13.404;2023-05-29T05:33:02;15.50;99.90
18880;DHT22;9572;52.378;13.404;2023-05-29T05:35:29;15.70;99.90
18880;DHT22;9572;52.378;13.404;2023-05-29T05:37:56;15.80;99.90
18880;DHT22;9572;52.378;13.404;2023-05-29T05:40:24;15.80;99.90
18880;DHT22;9572;52.378;13.404;2023-05-29T05:42:51;15.70;99.90
18880;DHT22;9572;52.378;13.404;2023-05-29T05:45:20;15.80;99.90
18880;DHT22;9572;52.378;13.404;2023-05-29T05:47:47;16.10;99.90
18880;DHT22;9572;52.378;13.404;2023-05-29T05:50:14;16.40;99.90
18880;DHT22;9572;52.378;13.404;2023-05-29T05:52:41;16.40;99.90
18880;DHT22;9572;52.378;13.404;2023-05-29T05:55:08;16.50;99.90
18880;DHT22;9572;52.378;13.404;2023-05-29T05:57:35;16.60;99.90
18880;DHT22;9572;52.378;13.404;2023-05-29T06:00:02;16.80;99.90
18880;DHT22;9572;52.378;13.404;2023-05-29T06:02:33;17.00;99.90
18880;DHT22;9572;52.378;13.404;2023-05-29T06:04:59;17.30;99.90
18880;DHT22;9572;52.378;13.404;2023-05-29T06:07:26;17.60;99.90
18880;DHT22;9572;52.378;13.404;2023-05-29T06:09:54;17.90;99.90
18880;DHT22;9572;52.378;13.404;2023-05-29T06:12:20;18.20;99.90
18880;DHT22;9572;52.378;13.404;2023-05-29T06:14:47;18.30;99.90
18880;DHT22;9572;52.378;13.404;2023-05-29T06:17:15;18.40;99.90
18880;DHT22;9572;52.378;13.404;2023-05-29T06:19:43;18.40;99.90
18880;DHT22;9572;52.378;13.404;2023-05-29T06:22:10;18.50;99.90
18880;DHT22;9572;52.378;13.404;2023-05-29T06:24:37;18.80;99.90
18880;DHT22;9572;52.378;13.404;2023-05-29T06:27:04;19.00;99.90
18880;DHT22;9572;52.378;13.404;2023-05-29T06:29:31;19.30;99.90
18880;DHT22;9572;52.378;13.404;2023-05-29T06:31:58;19.50;99.90
18880;DHT22;9572;52.378;13.404;2023-05-29T06:34:25;19.60;99.90
18880;DHT22;9572;52.378;13.404;2023-05-29T06:36:54;19.80;99.90
18880;DHT22;9572;52.378;13.404;2023-05-29T06:39:20;20.00;99.90
18880;DHT22;9572;52.378;13.404;2023-05-29T06:41:47;20.20;99.90
18880;DHT22;9572;52.378;13.404;2023-05-29T06:44:14;20.40;99.90
18880;DHT22;9572;52.378;13.404;2023-05-29T06:46:56;20.40;99.90
18880;DHT22;9572;52.378;13.404;2023-05-29T06:49:23;20.80;99.90
18880;DHT22;9572;52.378;13.404;2023-05-29T06:51:50;20.90;99.90
18880;DHT22;9572;52.378;13.404;2023-05-29T06:54:18;20.90;99.90
18880;DHT22;9572;52.378;13.404;2023-05-29T06:56:45;20.70;99.90
18880;DHT22;9572;52.378;13.404;2023-05-29T06:59:12;20.50;99.90
18880;DHT22;9572;52.378;13.404;2023-05-29T07:01:39;20.70;99.90
18880;DHT22;9572;52.378;13.404;2023-05-29T07:04:06;20.80;99.90
18880;DHT22;9572;52.378;13.404;2023-05-29T07:06:33;20.80;99.90
18880;DHT22;9572;52.378;13.404;2023-05-29T07:09:01;20.50;99.90
18880;DHT22;9572;52.378;13.404;2023-05-29T07:11:29;20.60;99.90
18880;DHT22;9572;52.378;13.404;2023-05-29T07:13:56;20.80;99.90
18880;DHT22;9572;52.378;13.404;2023-05-29T07:16:23;21.10;99.90
18880;DHT22;9572;52.378;13.404;2023-05-29T07:18:49;21.40;99.90
18880;DHT22;9572;52.378;13.404;2023-05-29T07:21:17;21.80;99.90
18880;DHT22;9572;52.378;13.404;2023-05-29T07:23:44;22.00;99.90
18880;DHT22;9572;52.378;13.404;2023-05-29T07:26:11;22.00;99.90
18880;DHT22;9572;52.378;13.404;2023-05-29T07:28:39;21.90;99.90
18880;DHT22;9572;52.378;13.404;2023-05-29T07:31:06;22.10;99.90
18880;DHT22;9572;52.378;13.404;2023-05-29T07:33:33;22.00;99.90
18880;DHT22;9572;52.378;13.404;2023-05-29T07:36:00;22.10;99.90
18880;DHT22;9572;52.378;13.404;2023-05-29T07:38:27;22.10;99.90
18880;DHT22;9572;52.378;13.404;2023-05-29T07:40:54;22.20;99.90
18880;DHT22;9572;52.378;13.404;2023-05-29T07:43:21;22.70;99.90
18880;DHT22;9572;52.378;13.404;2023-05-29T07:45:49;23.00;99.90
18880;DHT22;9572;52.378;13.404;2023-05-29T07:48:16;22.90;99.90
18880;DHT22;9572;52.378;13.404;2023-05-29T07:50:43;22.80;99.90
18880;DHT22;9572;52.378;13.404;2023-05-29T07:53:11;23.10;99.90
18880;DHT22;9572;52.378;13.404;2023-05-29T07:55:38;22.90;99.90
18880;DHT22;9572;52.378;13.404;2023-05-29T07:58:05;22.50;99.90
18880;DHT22;9572;52.378;13.404;2023-05-29T08:00:33;22.10;99.90
18880;DHT22;9572;52.378;13.404;2023-05-29T08:03:01;22.40;99.90
18880;DHT22;9572;52.378;13.404;2023-05-29T08:05:29;22.90;99.90
18880;DHT22;9572;52.378;13.404;2023-05-29T08:07:57;23.50;99.90
18880;DHT22;9572;52.378;13.404;2023-05-29T08:10:24;23.50;99.90
18880;DHT22;9572;52.378;13.404;2023-05-29T08:12:51;23.00;99.90
18880;DHT22;9572;52.378;13.404;2023-05-29T08:15:18;22.80;99.90
18880;DHT22;9572;52.378;13.404;2023-05-29T08:17:45;23.00;99.90
18880;DHT22;9572;52.378;13.404;2023-05-29T08:20:13;23.40;99.90
18880;DHT22;9572;52.378;13.404;2023-05-29T08:22:40;23.50;99.90
18880;DHT22;9572;52.378;13.404;2023-05-29T08:25:07;23.50;99.90
18880;DHT22;9572;52.378;13.404;2023-05-29T08:27:35;23.60;99.90
18880;DHT22;9572;52.378;13.404;2023-05-29T08:30:02;23.90;99.90
18880;DHT22;9572;52.378;13.404;2023-05-29T08:32:29;24.00;99.90
18880;DHT22;9572;52.378;13.404;2023-05-29T08:34:56;24.10;99.90
18880;DHT22;9572;52.378;13.404;2023-05-29T08:37:24;24.30;99.90
18880;DHT22;9572;52.378;13.404;2023-05-29T08:39:51;24.30;99.90
18880;DHT22;9572;52.378;13.404;2023-05-29T08:42:21;24.20;99.90
18880;DHT22;9572;52.378;13.404;2023-05-29T08:44:56;24.30;99.90
18880;DHT22;9572;52.378;13.404;2023-05-29T08:47:26;24.50;99.90
18880;DHT22;9572;52.378;13.404;2023-05-29T08:49:54;24.50;99.90
18880;DHT22;9572;52.378;13.404;2023-05-29T08:52:24;24.30;99.90
18880;DHT22;9572;52.378;13.404;2023-05-29T08:54:53;24.20;99.90
18880;DHT22;9572;52.378;13.404;2023-05-29T08:57:21;24.50;99.90
18880;DHT22;9572;52.378;13.404;2023-05-29T08:59:51;24.90;99.90
18880;DHT22;9572;52.378;13.404;2023-05-29T09:02:18;25.20;99.90
18880;DHT22;9572;52.378;13.404;2023-05-29T09:04:45;25.00;99.70
18880;DHT22;9572;52.378;13.404;2023-05-29T09:07:14;24.60;99.90
18880;DHT22;9572;52.378;13.404;2023-05-29T09:09:43;24.20;99.80
18880;DHT22;9572;52.378;13.404;2023-05-29T09:12:09;23.50;99.90
18880;DHT22;9572;52.378;13.404;2023-05-29T09:14:38;23.20;99.90
18880;DHT22;9572;52.378;13.404;2023-05-29T09:17:06;22.60;99.90
18880;DHT22;9572;52.378;13.404;2023-05-29T09:19:33;22.60;99.90
18880;DHT22;9572;52.378;13.404;2023-05-29T09:22:02;22.70;99.90
18880;DHT22;9572;52.378;13.404;2023-05-29T09:24:30;22.60;99.90
18880;DHT22;9572;52.378;13.404;2023-05-29T09:27:00;22.60;99.90
18880;DHT22;9572;52.378;13.404;2023-05-29T09:29:30;22.90;99.90
18880;DHT22;9572;52.378;13.404;2023-05-29T09:31:58;23.40;99.90
18880;DHT22;9572;52.378;13.404;2023-05-29T09:34:24;23.70;99.90
18880;DHT22;9572;52.378;13.404;2023-05-29T09:36:53;23.90;99.90
18880;DHT22;9572;52.378;13.404;2023-05-29T09:39:21;23.80;99.90
18880;DHT22;9572;52.378;13.404;2023-05-29T09:41:48;24.10;99.90
18880;DHT22;9572;52.378;13.404;2023-05-29T09:44:16;24.60;99.90
18880;DHT22;9572;52.378;13.404;2023-05-29T09:46:44;25.10;99.90
18880;DHT22;9572;52.378;13.404;2023-05-29T09:49:12;24.80;99.90
18880;DHT22;9572;52.378;13.404;2023-05-29T09:51:40;24.80;99.90
18880;DHT22;9572;52.378;13.404;2023-05-29T09:54:18;24.50;99.90
18880;DHT22;9572;52.378;13.404;2023-05-29T09:56:45;24.50;99.90
18880;DHT22;9572;52.378;13.404;2023-05-29T09:59:14;24.70;99.90
18880;DHT22;9572;52.378;13.404;2023-05-29T10:01:43;24.60;99.90
18880;DHT22;9572;52.378;13.404;2023-05-29T10:04:11;24.60;99.90
18880;DHT22;9572;52.378;13.404;2023-05-29T10:06:40;24.00;99.90
18880;DHT22;9572;52.378;13.404;2023-05-29T10:09:09;24.10;99.90
18880;DHT22;9572;52.378;13.404;2023-05-29T10:11:41;24.00;99.90
18880;DHT22;9572;52.378;13.404;2023-05-29T10:14:13;24.60;99.90
18880;DHT22;9572;52.378;13.404;2023-05-29T10:16:43;25.20;99.90
18880;DHT22;9572;52.378;13.404;2023-05-29T10:19:15;25.50;99.90
18880;DHT22;9572;52.378;13.404;2023-05-29T10:21:45;25.20;99.40
18880;DHT22;9572;52.378;13.404;2023-05-29T10:24:14;24.40;99.90
18880;DHT22;9572;52.378;13.404;2023-05-29T10:26:43;24.20;99.90
18880;DHT22;9572;52.378;13.404;2023-05-29T10:29:17;24.00;99.90
18880;DHT22;9572;52.378;13.404;2023-05-29T10:31:58;23.70;99.90
18880;DHT22;9572;52.378;13.404;2023-05-29T10:34:34;24.20;99.60
18880;DHT22;9572;52.378;13.404;2023-05-29T10:37:08;24.60;99.90
18880;DHT22;9572;52.378;13.404;2023-05-29T10:39:36;24.20;98.90
18880;DHT22;9572;52.378;13.404;2023-05-29T10:42:42;23.60;99.90
18880;DHT22;9572;52.378;13.404;2023-05-29T10:45:10;23.30;99.90
18880;DHT22;9572;52.378;13.404;2023-05-29T10:47:39;23.00;99.90
18880;DHT22;9572;52.378;13.404;2023-05-29T10:50:06;23.30;99.90
18880;DHT22;9572;52.378;13.404;2023-05-29T10:52:33;23.40;99.90
18880;DHT22;9572;52.378;13.404;2023-05-29T10:55:01;23.40;99.90
18880;DHT22;9572;52.378;13.404;2023-05-29T10:57:30;23.10;99.90
18880;DHT22;9572;52.378;13.404;2023-05-29T11:00:06;22.80;99.90
18880;DHT22;9572;52.378;13.404;2023-05-29T11:02:40;22.80;99.90
18880;DHT22;9572;52.378;13.404;2023-05-29T11:05:21;23.30;99.90
18880;DHT22;9572;52.378;13.404;2023-05-29T11:07:55;23.90;99.90
18880;DHT22;9572;52.378;13.404;2023-05-29T11:10:45;24.10;99.90
18880;DHT22;9572;52.378;13.404;2023-05-29T11:13:26;24.60;99.90
18880;DHT22;9572;52.378;13.404;2023-05-29T11:16:14;24.40;98.80
18880;DHT22;9572;52.378;13.404;2023-05-29T11:18:47;23.80;98.90
18880;DHT22;9572;52.378;13.404;2023-05-29T11:21:33;23.20;99.60
18880;DHT22;9572;52.378;13.404;2023-05-29T11:24:01;23.30;99.90
18880;DHT22;9572;52.378;13.404;2023-05-29T11:26:31;24.00;99.60
18880;DHT22;9572;52.378;13.404;2023-05-29T11:28:59;24.60;98.80
18880;DHT22;9572;52.378;13.404;2023-05-29T11:31:28;24.40;98.00
18880;DHT22;9572;52.378;13.404;2023-05-29T11:33:59;23.70;98.90
18880;DHT22;9572;52.378;13.404;2023-05-29T11:36:28;23.10;99.60
18880;DHT22;9572;52.378;13.404;2023-05-29T11:38:56;23.10;99.90
18880;DHT22;9572;52.378;13.404;2023-05-29T11:41:23;23.40;99.60
18880;DHT22;9572;52.378;13.404;2023-05-29T11:43:58;23.90;98.00
18880;DHT22;9572;52.378;13.404;2023-05-29T11:46:26;23.40;98.10
18880;DHT22;9572;52.378;13.404;2023-05-29T11:48:58;23.20;98.40
18880;DHT22;9572;52.378;13.404;2023-05-29T11:51:25;23.40;99.40
18880;DHT22;9572;52.378;13.404;2023-05-29T11:53:52;23.90;99.10
18880;DHT22;9572;52.378;13.404;2023-05-29T11:56:23;24.40;96.30
18880;DHT22;9572;52.378;13.404;2023-05-29T11:58:51;24.90;96.20
18880;DHT22;9572;52.378;13.404;2023-05-29T12:01:21;25.10;96.40
18880;DHT22;9572;52.378;13.404;2023-05-29T12:03:49;25.10;95.70
18880;DHT22;9572;52.378;13.404;2023-05-29T12:06:30;24.90;96.50
18880;DHT22;9572;52.378;13.404;2023-05-29T12:08:57;25.10;97.10
18880;DHT22;9572;52.378;13.404;2023-05-29T12:11:24;25.30;96.70
18880;DHT22;9572;52.378;13.404;2023-05-29T12:13:55;25.10;96.20
18880;DHT22;9572;52.378;13.404;2023-05-29T12:16:23;25.30;95.80
18880;DHT22;9572;52.378;13.404;2023-05-29T12:18:51;25.40;94.80
18880;DHT22;9572;52.378;13.404;2023-05-29T12:21:20;25.50;94.80
18880;DHT22;9572;52.378;13.404;2023-05-29T12:23:47;25.60;94.20
18880;DHT22;9572;52.378;13.404;2023-05-29T12:26:14;25.40;93.20
18880;DHT22;9572;52.378;13.404;2023-05-29T12:28:43;25.10;92.70
18880;DHT22;9572;52.378;13.404;2023-05-29T12:31:10;24.80;94.20
18880;DHT22;9572;52.378;13.404;2023-05-29T12:33:43;24.80;94.10
18880;DHT22;9572;52.378;13.404;2023-05-29T12:36:12;24.80;93.20
18880;DHT22;9572;52.378;13.404;2023-05-29T12:38:48;24.80;93.90
18880;DHT22;9572;52.378;13.404;2023-05-29T12:41:25;24.60;93.70
18880;DHT22;9572;52.378;13.404;2023-05-29T12:43:54;24.40;94.30
18880;DHT22;9572;52.378;13.404;2023-05-29T12:46:22;24.10;94.30
18880;DHT22;9572;52.378;13.404;2023-05-29T12:48:49;24.00;94.60
18880;DHT22;9572;52.378;13.404;2023-05-29T12:51:22;23.90;94.90
18880;DHT22;9572;52.378;13.404;2023-05-29T12:53:50;23.90;95.60
18880;DHT22;9572;52.378;13.404;2023-05-29T12:56:20;24.20;95.50
18880;DHT22;9572;52.378;13.404;2023-05-29T12:58:49;24.20;95.00
18880;DHT22;9572;52.378;13.404;2023-05-29T13:01:16;24.20;95.40
18880;DHT22;9572;52.378;13.404;2023-05-29T13:03:43;24.10;96.40
18880;DHT22;9572;52.378;13.404;2023-05-29T13:06:10;24.20;94.50
18880;DHT22;9572;52.378;13.404;2023-05-29T13:08:38;24.30;95.30
18880;DHT22;9572;52.378;13.404;2023-05-29T13:11:06;24.30;95.20
18880;DHT22;9572;52.378;13.404;2023-05-29T13:13:33;24.40;95.00
18880;DHT22;9572;52.378;13.404;2023-05-29T13:16:00;24.30;95.80
18880;DHT22;9572;52.378;13.404;2023-05-29T13:18:27;24.40;94.80
18880;DHT22;9572;52.378;13.404;2023-05-29T13:20:54;24.50;95.60
18880;DHT22;9572;52.378;13.404;2023-05-29T13:23:20;24.60;94.70
18880;DHT22;9572;52.378;13.404;2023-05-29T13:25:47;24.60;94.10
18880;DHT22;9572;52.378;13.404;2023-05-29T13:28:16;24.40;93.60
18880;DHT22;9572;52.378;13.404;2023-05-29T13:30:44;24.20;94.30
18880;DHT22;9572;52.378;13.404;2023-05-29T13:33:10;24.10;95.00
18880;DHT22;9572;52.378;13.404;2023-05-29T13:35:37;23.80;95.00
18880;DHT22;9572;52.378;13.404;2023-05-29T13:38:04;23.90;95.30
18880;DHT22;9572;52.378;13.404;2023-05-29T13:40:31;24.00;95.50
18880;DHT22;9572;52.378;13.404;2023-05-29T13:42:58;24.00;94.90
18880;DHT22;9572;52.378;13.404;2023-05-29T13:45:26;24.00;95.00
18880;DHT22;9572;52.378;13.404;2023-05-29T13:47:54;23.90;94.20
18880;DHT22;9572;52.378;13.404;2023-05-29T13:50:21;23.40;94.50
18880;DHT22;9572;52.378;13.404;2023-05-29T13:52:49;22.90;94.60
18880;DHT22;9572;52.378;13.404;2023-05-29T13:55:16;23.10;94.90
18880;DHT22;9572;52.378;13.404;2023-05-29T13:57:43;23.30;95.10
18880;DHT22;9572;52.378;13.404;2023-05-29T14:00:11;23.50;94.00
18880;DHT22;9572;52.378;13.404;2023-05-29T14:02:39;23.60;94.20
18880;DHT22;9572;52.378;13.404;2023-05-29T14:05:07;23.60;95.90
18880;DHT22;9572;52.378;13.404;2023-05-29T14:07:35;23.50;95.20
18880;DHT22;9572;52.378;13.404;2023-05-29T14:10:02;23.60;95.30
18880;DHT22;9572;52.378;13.404;2023-05-29T14:12:29;23.90;95.90
18880;DHT22;9572;52.378;13.404;2023-05-29T14:14:55;24.00;95.30
18880;DHT22;9572;52.378;13.404;2023-05-29T14:17:22;24.20;94.60
18880;DHT22;9572;52.378;13.404;2023-05-29T14:19:52;24.30;94.90
18880;DHT22;9572;52.378;13.404;2023-05-29T14:22:20;24.00;94.90
18880;DHT22;9572;52.378;13.404;2023-05-29T14:24:47;24.20;93.80
18880;DHT22;9572;52.378;13.404;2023-05-29T14:27:14;24.20;93.90
18880;DHT22;9572;52.378;13.404;2023-05-29T14:29:41;24.20;94.00
18880;DHT22;9572;52.378;13.404;2023-05-29T14:32:08;24.40;94.10
18880;DHT22;9572;52.378;13.404;2023-05-29T14:34:35;24.10;92.80
18880;DHT22;9572;52.378;13.404;2023-05-29T14:37:03;24.10;92.80
18880;DHT22;9572;52.378;13.404;2023-05-29T14:39:30;24.10;93.90
18880;DHT22;9572;52.378;13.404;2023-05-29T14:41:57;24.40;93.60
18880;DHT22;9572;52.378;13.404;2023-05-29T14:44:24;24.40;93.20
18880;DHT22;9572;52.378;13.404;2023-05-29T14:46:51;24.50;94.50
18880;DHT22;9572;52.378;13.404;2023-05-29T14:49:18;24.70;93.70
18880;DHT22;9572;52.378;13.404;2023-05-29T14:51:45;24.90;92.70
18880;DHT22;9572;52.378;13.404;2023-05-29T14:54:13;24.80;92.70
18880;DHT22;9572;52.378;13.404;2023-05-29T14:56:40;24.70;92.60
18880;DHT22;9572;52.378;13.404;2023-05-29T14:59:07;24.30;93.70
18880;DHT22;9572;52.378;13.404;2023-05-29T15:01:34;23.90;93.50
18880;DHT22;9572;52.378;13.404;2023-05-29T15:04:01;23.70;94.10
18880;DHT22;9572;52.378;13.404;2023-05-29T15:06:27;23.50;94.20
18880;DHT22;9572;52.378;13.404;2023-05-29T15:08:55;23.40;94.80
18880;DHT22;9572;52.378;13.404;2023-05-29T15:11:25;23.60;94.00
18880;DHT22;9572;52.378;13.404;2023-05-29T15:13:51;23.60;94.40
18880;DHT22;9572;52.378;13.404;2023-05-29T15:16:18;23.50;93.80
18880;DHT22;9572;52.378;13.404;2023-05-29T15:18:45;23.40;94.40
18880;DHT22;9572;52.378;13.404;2023-05-29T15:21:12;23.50;95.10
18880;DHT22;9572;52.378;13.404;2023-05-29T15:23:39;23.30;94.00
18880;DHT22;9572;52.378;13.404;2023-05-29T15:26:08;23.20;93.30
18880;DHT22;9572;52.378;13.404;2023-05-29T15:28:37;23.00;93.40
18880;DHT22;9572;52.378;13.404;2023-05-29T15:31:04;22.80;93.30
18880;DHT22;9572;52.378;13.404;2023-05-29T15:33:31;22.80;93.10
18880;DHT22;9572;52.378;13.404;2023-05-29T15:35:58;22.80;93.40
18880;DHT22;9572;52.378;13.404;2023-05-29T15:38:25;22.80;93.50
18880;DHT22;9572;52.378;13.404;2023-05-29T15:40:54;22.90;93.70